createdAt,value
2019-04-20T00:02:24.002Z,8.4
2019-04-20T00:07:52.219Z,8.4
2019-04-20T00:13:28.509Z,8.3
2019-04-20T00:18:50.194Z,8.3
2019-04-20T00:24:23.291Z,8.2
2019-04-20T00:29:58.538Z,8.2
2019-04-20T00:35:10.373Z,8.1
2019-04-20T00:40:43.388Z,8.1
2019-04-20T00:46:07.835Z,8.1
2019-04-20T00:51:50.552Z,8
2019-04-20T00:57:13.114Z,7.9
2019-04-20T01:02:40.215Z,7.9
2019-04-20T01:08:06.211Z,7.9
2019-04-20T01:18:53.077Z,7.9
2019-04-20T01:24:27.906Z,7.8
2019-04-20T01:29:52.741Z,7.8
2019-04-20T01:35:29.907Z,7.8
2019-04-20T01:40:44.351Z,7.8
2019-04-20T01:46:15.464Z,7.7
2019-04-20T01:51:46.823Z,7.7
2019-04-20T01:57:15.428Z,7.6
2019-04-20T02:02:42.116Z,7.6
2019-04-20T02:08:06.693Z,7.5
2019-04-20T02:13:34.533Z,7.5
2019-04-20T02:19:13.004Z,7.5
2019-04-20T02:24:25.861Z,7.4
2019-04-20T02:30:20.677Z,7.4
2019-04-20T02:36:00.374Z,7.3
2019-04-20T02:41:27.360Z,7.3
2019-04-20T02:47:06.729Z,7.2
2019-04-20T02:52:20.719Z,7.2
2019-04-20T02:57:52.592Z,7.2
2019-04-20T03:02:52.725Z,7.2
2019-04-20T03:08:26.018Z,7.1
2019-04-20T03:13:57.681Z,7.1
2019-04-20T03:19:19.637Z,7.1
2019-04-20T03:24:58.712Z,7
2019-04-20T03:31:03.680Z,6.9
2019-04-20T03:35:56.876Z,6.9
2019-04-20T03:41:08.048Z,6.9
2019-04-20T03:52:07.743Z,6.7
2019-04-20T03:57:45.478Z,6.7
2019-04-20T04:03:19.541Z,6.7
2019-04-20T04:08:27.547Z,6.7
2019-04-20T04:13:45.963Z,6.6
2019-04-20T04:19:19.631Z,6.6
2019-04-20T04:24:56.850Z,6.6
2019-04-20T04:30:21.736Z,6.5
2019-04-20T04:35:51.210Z,6.5
2019-04-20T04:41:22.629Z,6.6
2019-04-20T04:46:33.752Z,6.6
2019-04-20T04:52:05.312Z,6.6
2019-04-20T04:57:28.417Z,6.6
2019-04-20T05:02:58.959Z,6.5
2019-04-20T05:08:28.939Z,6.5
2019-04-20T05:13:56.543Z,6.5
2019-04-20T05:19:36.341Z,6.6
2019-04-20T05:25:04.513Z,6.7
2019-04-20T05:30:13.911Z,6.7
2019-04-20T05:36:00.760Z,6.8
2019-04-20T05:41:21.146Z,6.9
2019-04-20T05:46:53.069Z,7
2019-04-20T05:52:34.883Z,7.2
2019-04-20T05:57:56.253Z,7.3
2019-04-20T06:03:15.107Z,7.5
2019-04-20T06:08:53.545Z,7.6
2019-04-20T06:14:05.736Z,7.7
2019-04-20T06:19:51.701Z,7.8
2019-04-20T06:25:30.036Z,8
2019-04-20T06:30:34.571Z,8.1
2019-04-20T06:36:20.254Z,8.3
2019-04-20T06:41:50.340Z,8.4
2019-04-20T06:47:08.168Z,8.5
2019-04-20T06:52:31.909Z,8.6
2019-04-20T06:57:59.624Z,8.8
2019-04-20T07:03:41.966Z,8.9
2019-04-20T07:14:09.850Z,9.2
2019-04-20T07:19:49.698Z,9.4
2019-04-20T07:25:18.552Z,9.5
2019-04-20T07:36:19.355Z,9.9
2019-04-20T07:47:21.635Z,10.2
2019-04-20T07:52:31.508Z,10.3
2019-04-20T07:58:01.221Z,10.5
2019-04-20T08:03:43.760Z,10.6
2019-04-20T08:08:56.925Z,10.8
2019-04-20T08:14:36.607Z,10.9
2019-04-20T08:19:56.076Z,11.1
2019-04-20T08:25:23.390Z,11.3
2019-04-20T08:30:51.111Z,11.4
2019-04-20T08:36:26.710Z,11.6
2019-04-20T08:41:55.859Z,11.7
2019-04-20T08:47:27.077Z,11.8
2019-04-20T08:57:58.375Z,12.1
2019-04-20T09:03:31.361Z,12.2
2019-04-20T09:09:11.496Z,12.3
2019-04-20T09:14:23.581Z,12.4
2019-04-20T09:19:58.489Z,12.6
2019-04-20T09:30:58.976Z,12.8
2019-04-20T09:36:32.268Z,12.9
2019-04-20T09:41:59.559Z,13.1
2019-04-20T09:47:23.221Z,13.2
2019-04-20T09:52:56.727Z,13.4
2019-04-20T09:58:24.525Z,13.5
2019-04-20T10:03:40.883Z,13.6
2019-04-20T10:09:09.755Z,13.7
2019-04-20T10:14:38.971Z,13.7
2019-04-20T10:20:10.733Z,13.8
2019-04-20T10:25:43.001Z,13.9
2019-04-20T10:31:04.790Z,14
2019-04-20T10:36:33.324Z,14.1
2019-04-20T10:42:04.130Z,14.3
2019-04-20T10:47:31.114Z,14.4
2019-04-20T10:52:59.595Z,14.4
2019-04-20T10:58:27.508Z,14.5
2019-04-20T11:03:56.577Z,14.6
2019-04-20T11:09:26.783Z,14.7
2019-04-20T11:14:54.433Z,14.8
2019-04-20T11:20:23.199Z,14.9
2019-04-20T11:25:50.477Z,15
2019-04-20T11:31:19.993Z,15.1
2019-04-20T11:36:48.873Z,15.2
2019-04-20T11:42:17.493Z,15.2
2019-04-20T11:47:47.349Z,15.3
2019-04-20T11:53:17.329Z,15.4
2019-04-20T11:58:45.105Z,15.4
2019-04-20T12:04:25.982Z,15.5
2019-04-20T12:09:41.815Z,15.5
2019-04-20T12:15:10.537Z,15.6
2019-04-20T12:20:38.894Z,15.6
2019-04-20T12:26:06.759Z,15.7
2019-04-20T12:31:35.684Z,15.7
2019-04-20T12:37:04.976Z,15.8
2019-04-20T12:42:33.013Z,15.8
2019-04-20T12:48:01.741Z,15.9
2019-04-20T12:53:30.790Z,16
2019-04-20T12:58:59.832Z,16
2019-04-20T13:04:30.060Z,16
2019-04-20T13:09:58.772Z,16.1
2019-04-20T13:15:26.549Z,16.1
2019-04-20T13:20:57.822Z,16.1
2019-04-20T13:26:25.021Z,16.1
2019-04-20T13:31:53.635Z,16.1
2019-04-20T13:37:22.227Z,16.2
2019-04-20T13:42:49.852Z,16.2
2019-04-20T13:48:19.206Z,16.2
2019-04-20T13:53:47.746Z,16.2
2019-04-20T13:59:16.967Z,16.2
2019-04-20T14:04:46.208Z,16.3
2019-04-20T14:10:13.695Z,16.3
2019-04-20T14:15:42.881Z,16.3
2019-04-20T14:21:12.179Z,16.3
2019-04-20T14:26:41.115Z,16.3
2019-04-20T14:32:09.256Z,16.3
2019-04-20T14:37:37.359Z,16.4
2019-04-20T14:43:06.981Z,16.4
2019-04-20T14:48:34.454Z,16.4
2019-04-20T14:54:03.369Z,16.4
2019-04-20T14:59:31.694Z,16.3
2019-04-20T15:05:01.127Z,16.3
2019-04-20T15:10:29.117Z,16.3
2019-04-20T15:15:58.963Z,16.3
2019-04-20T15:21:27.183Z,16.3
2019-04-20T15:26:56.431Z,16.3
2019-04-20T15:32:24.999Z,16.3
2019-04-20T15:43:26.195Z,16.2
2019-04-20T15:48:52.397Z,16.1
2019-04-20T15:54:20.642Z,16
2019-04-20T15:59:48.711Z,16
2019-04-20T16:05:18.482Z,15.9
2019-04-20T16:10:45.484Z,15.9
2019-04-20T16:16:16.168Z,15.9
2019-04-20T16:21:43.897Z,15.9
2019-04-20T16:27:13.695Z,15.8
2019-04-20T16:32:42.694Z,15.7
2019-04-20T16:38:11.595Z,15.7
2019-04-20T16:43:44.437Z,15.6
2019-04-20T16:49:09.006Z,15.5
2019-04-20T16:54:38.247Z,15.4
2019-04-20T17:00:07.465Z,15.2
2019-04-20T17:05:34.921Z,15.1
2019-04-20T17:11:03.472Z,14.9
2019-04-20T17:16:39.925Z,14.8
2019-04-20T17:22:03.428Z,14.6
2019-04-20T17:32:57.847Z,14.4
2019-04-20T17:38:34.597Z,14.3
2019-04-20T17:44:13.939Z,14.2
2019-04-20T17:49:33.963Z,14.1
2019-04-20T17:54:51.803Z,14
2019-04-20T18:00:22.421Z,13.9
2019-04-20T18:06:12.511Z,13.8
2019-04-20T18:11:21.788Z,13.7
2019-04-20T18:17:02.117Z,13.6
2019-04-20T18:22:15.908Z,13.4
2019-04-20T18:27:59.468Z,13.3
2019-04-20T18:33:11.875Z,13.1
2019-04-20T18:38:49.468Z,13
2019-04-20T18:44:10.746Z,12.9
2019-04-20T18:55:13.044Z,12.6
2019-04-20T19:00:36.846Z,12.4
2019-04-20T19:06:02.483Z,12.3
2019-04-20T19:11:35.347Z,12.1
2019-04-20T19:17:10.692Z,11.9
2019-04-20T19:22:30.202Z,11.8
2019-04-20T19:27:59.932Z,11.7
2019-04-20T19:33:36.817Z,11.5
2019-04-20T19:39:09.145Z,11.4
2019-04-20T19:44:29.500Z,11.2
2019-04-20T19:50:20.601Z,11
2019-04-20T19:55:30.950Z,11
2019-04-20T20:00:51.167Z,10.9
2019-04-20T20:06:21.324Z,10.9
2019-04-20T20:11:44.370Z,10.8
2019-04-20T20:17:32.460Z,10.8
2019-04-20T20:22:42.559Z,10.7
2019-04-20T20:33:49.205Z,10.7
2019-04-20T20:39:09.531Z,10.6
2019-04-20T20:44:40.967Z,10.5
2019-04-20T20:50:19.800Z,10.5
2019-04-20T20:55:34.073Z,10.3
2019-04-20T21:01:02.690Z,10.2
2019-04-20T21:06:22.479Z,10.1
2019-04-20T21:17:23.357Z,10
2019-04-20T21:23:02.236Z,9.9
2019-04-20T21:33:45.048Z,9.8
2019-04-20T21:39:18.951Z,9.7
2019-04-20T21:44:44.728Z,9.6
2019-04-20T21:50:23.916Z,9.6
2019-04-20T21:55:39.710Z,9.5
2019-04-20T22:01:15.993Z,9.4
2019-04-20T22:06:32.444Z,9.3
2019-04-20T22:12:02.076Z,9.2
2019-04-20T22:17:32.977Z,9.1
2019-04-20T22:23:05.535Z,9
2019-04-20T22:28:29.779Z,8.8
2019-04-20T22:33:52.331Z,8.6
2019-04-20T22:39:22.345Z,8.5
2019-04-20T22:44:54.668Z,8.4
2019-04-20T22:50:28.764Z,8.3
2019-04-20T22:56:05.526Z,8.2
2019-04-20T23:01:19.151Z,8.1
2019-04-20T23:06:42.326Z,8
2019-04-20T23:12:09.962Z,7.9
2019-04-20T23:17:43.342Z,7.8
2019-04-20T23:23:00.948Z,7.8
2019-04-20T23:28:29.117Z,7.9
2019-04-20T23:33:56.159Z,7.8
2019-04-20T23:39:29.983Z,7.8
2019-04-20T23:44:55.987Z,7.7
2019-04-20T23:50:40.526Z,7.7
2019-04-20T23:55:47.895Z,7.7
